Time;durP1;ratioP1;P1;durP2;ratioP2;P2;SDS_P1;SDS_P2;PMS_P1;PMS_P2;Temp;Humidity;BMP_temperature;BMP_pressure;BME280_temperature;BME280_humidity;BME280_pressure;Samples;Min_cycle;Max_cycle;Signal;HPM_P1;HPM_P2
2022/01/30 00:00:00;;;;;;;25.57;4.87;;;6.70;99.90;;;;;;5070603;28;20258;-60
2022/01/30 00:02:28;;;;;;;21.77;4.03;;;6.70;99.90;;;;;;5069799;28;20266;-60
2022/01/30 00:04:56;;;;;;;28.80;5.67;;;6.70;99.90;;;;;;5057561;28;20602;-60
2022/01/30 00:07:25;;;;;;;25.27;5.07;;;6.70;99.90;;;;;;5071439;28;20334;-60
2022/01/30 00:09:53;;;;;;;20.50;4.73;;;6.70;99.90;;;;;;5074365;28;20241;-60
2022/01/30 00:12:30;;;;;;;27.73;6.07;;;6.70;99.90;;;;;;5073856;28;20269;-60
2022/01/30 00:14:59;;;;;;;20.40;6.13;;;6.70;99.90;;;;;;5074318;28;20591;-60
2022/01/30 00:17:34;;;;;;;32.63;5.77;;;6.70;99.90;;;;;;5073918;28;20697;-60
2022/01/30 00:20:05;;;;;;;24.20;5.40;;;6.70;99.90;;;;;;5054236;28;20581;-59
2022/01/30 00:22:47;;;;;;;32.17;5.70;;;6.70;99.90;;;;;;5073801;28;20251;-60
2022/01/30 00:25:18;;;;;;;32.53;5.17;;;6.60;99.90;;;;;;5056968;28;20235;-60
2022/01/30 00:27:55;;;;;;;28.37;5.23;;;6.60;99.90;;;;;;5073118;28;20242;-60
2022/01/30 00:30:25;;;;;;;25.77;4.93;;;6.60;99.90;;;;;;5073509;28;20263;-60
2022/01/30 00:32:53;;;;;;;36.80;5.87;;;6.60;99.90;;;;;;5073751;28;20234;-60
2022/01/30 00:35:37;;;;;;;21.13;4.73;;;6.60;99.90;;;;;;5073801;28;20243;-60
2022/01/30 00:38:10;;;;;;;28.00;5.10;;;6.60;99.90;;;;;;5073899;28;20309;-60
2022/01/30 00:40:38;;;;;;;18.80;4.33;;;6.50;99.90;;;;;;5072822;28;20234;-60
2022/01/30 00:43:10;;;;;;;22.47;4.40;;;6.60;99.90;;;;;;5070460;28;20235;-60
2022/01/30 00:45:38;;;;;;;23.67;5.50;;;6.60;99.90;;;;;;5073148;28;20314;-60
2022/01/30 00:48:07;;;;;;;21.93;4.63;;;6.60;99.90;;;;;;5073550;28;20683;-60
2022/01/30 00:50:36;;;;;;;28.40;4.83;;;6.60;99.90;;;;;;5072197;28;20234;-59
2022/01/30 00:53:05;;;;;;;28.43;5.77;;;6.60;99.90;;;;;;5073711;28;20262;-60
2022/01/30 00:55:33;;;;;;;28.97;5.43;;;6.70;99.90;;;;;;5072047;28;20235;-60
2022/01/30 00:58:02;;;;;;;23.70;4.23;;;6.60;99.90;;;;;;5073562;28;20250;-60
2022/01/30 01:00:32;;;;;;;26.07;5.53;;;6.60;99.90;;;;;;5071211;28;20253;-60
2022/01/30 01:03:01;;;;;;;24.97;4.60;;;6.60;99.90;;;;;;5073221;28;20618;-60
2022/01/30 01:05:31;;;;;;;31.03;5.47;;;6.60;99.90;;;;;;5072948;28;20288;-60
2022/01/30 01:08:07;;;;;;;27.20;5.40;;;6.60;99.90;;;;;;5063958;28;20306;-60
2022/01/30 01:10:40;;;;;;;24.53;4.23;;;6.50;99.90;;;;;;5073183;28;20691;-60
2022/01/30 01:13:40;;;;;;;23.17;4.27;;;6.50;99.90;;;;;;5072907;28;20646;-60
2022/01/30 01:24:26;;;;;;;21.77;4.60;;;6.30;99.90;;;;;;5070274;28;20292;-60
2022/01/30 01:26:54;;;;;;;24.43;4.53;;;6.30;99.90;;;;;;5070514;28;20727;-60
2022/01/30 01:29:22;;;;;;;28.10;5.93;;;6.30;99.90;;;;;;5072241;28;20258;-60
2022/01/30 01:31:52;;;;;;;25.60;5.03;;;6.30;99.90;;;;;;5072005;28;20238;-60
2022/01/30 01:34:31;;;;;;;31.17;5.57;;;6.30;99.90;;;;;;5069742;28;20596;-60
2022/01/30 01:36:59;;;;;;;21.70;4.43;;;6.20;99.90;;;;;;5072823;28;20653;-60
2022/01/30 01:39:28;;;;;;;38.83;6.97;;;6.30;99.90;;;;;;5072194;28;20238;-60
2022/01/30 01:41:56;;;;;;;26.03;5.17;;;6.30;99.90;;;;;;5064139;28;20603;-60
2022/01/30 01:44:32;;;;;;;34.60;6.17;;;6.30;99.90;;;;;;5072528;28;20653;-60
2022/01/30 01:47:02;;;;;;;26.50;6.13;;;6.40;99.90;;;;;;5072169;28;20715;-60
2022/01/30 01:49:32;;;;;;;36.23;5.53;;;6.40;99.90;;;;;;5070767;28;20238;-60
2022/01/30 01:52:20;;;;;;;22.47;5.17;;;6.40;99.90;;;;;;5072611;28;20683;-60
2022/01/30 01:54:49;;;;;;;18.17;3.77;;;6.30;99.90;;;;;;5072273;28;20250;-60
2022/01/30 01:57:18;;;;;;;17.87;4.40;;;6.30;99.90;;;;;;5070869;28;20496;-62
2022/01/30 02:00:10;;;;;;;21.67;4.60;;;6.40;99.90;;;;;;5052087;28;20243;-63
2022/01/30 02:02:42;;;;;;;22.50;4.37;;;6.30;99.90;;;;;;5060706;28;20318;-62
2022/01/30 02:05:11;;;;;;;24.77;4.37;;;6.30;99.90;;;;;;5064250;28;20258;-62
2022/01/30 02:10:29;;;;;;;25.10;4.33;;;6.20;99.90;;;;;;5048720;28;20263;-63
2022/01/30 02:13:12;;;;;;;23.33;4.77;;;6.10;99.90;;;;;;5065435;28;20234;-62
2022/01/30 02:23:57;;;;;;;21.77;4.40;;;6.20;99.90;;;;;;5071890;28;21239;-62
2022/01/30 02:24:28;;;;;;;23.83;4.50;;;6.30;99.90;;;;;;5070699;28;20234;-63
2022/01/30 02:26:56;;;;;;;29.63;5.23;;;6.30;99.90;;;;;;5062701;28;20293;-62
2022/01/30 02:29:25;;;;;;;25.30;5.37;;;6.10;99.90;;;;;;5051759;28;20573;-62
2022/01/30 02:31:56;;;;;;;22.07;3.70;;;6.00;99.90;;;;;;5053062;28;20807;-63
2022/01/30 02:34:27;;;;;;;30.70;4.90;;;5.80;99.90;;;;;;5068801;28;20646;-62
2022/01/30 02:36:56;;;;;;;31.40;5.57;;;5.80;99.90;;;;;;5071479;28;20239;-63
2022/01/30 02:39:26;;;;;;;27.70;5.43;;;5.80;99.90;;;;;;5067342;28;20662;-62
2022/01/30 02:41:55;;;;;;;24.27;6.20;;;5.70;99.90;;;;;;5048569;28;20715;-62
2022/01/30 02:44:27;;;;;;;27.50;5.57;;;5.80;99.90;;;;;;5050203;28;20246;-63
2022/01/30 02:47:01;;;;;;;24.83;5.00;;;5.80;99.90;;;;;;5053655;28;20239;-63
2022/01/30 02:49:43;;;;;;;28.93;6.13;;;5.80;99.90;;;;;;5067839;28;20321;-63
2022/01/30 02:52:12;;;;;;;33.00;5.93;;;5.80;99.90;;;;;;5081877;28;20470;-63
2022/01/30 02:54:42;;;;;;;32.57;6.03;;;5.80;99.90;;;;;;5049703;28;20553;-63
2022/01/30 02:57:10;;;;;;;26.87;6.43;;;5.70;99.90;;;;;;5049907;28;20528;-63
2022/01/30 02:59:39;;;;;;;30.03;6.03;;;5.70;99.90;;;;;;5066083;28;21097;-63
2022/01/30 03:02:07;;;;;;;36.00;5.57;;;5.70;99.90;;;;;;5051718;28;20608;-63
2022/01/30 03:04:36;;;;;;;11.87;3.70;;;5.60;99.90;;;;;;5071044;28;20246;-62
2022/01/30 03:07:05;;;;;;;29.57;5.40;;;5.60;99.90;;;;;;5061152;28;20239;-62
2022/01/30 03:09:50;;;;;;;24.33;4.80;;;5.60;99.90;;;;;;5061704;28;20234;-62
2022/01/30 03:12:18;;;;;;;27.07;4.50;;;5.50;99.90;;;;;;5069331;28;20239;-62
2022/01/30 03:14:47;;;;;;;18.47;4.27;;;5.50;99.90;;;;;;5070953;28;20235;-63
2022/01/30 03:17:15;;;;;;;33.97;6.80;;;5.60;99.90;;;;;;5071366;28;20237;-62
2022/01/30 03:19:44;;;;;;;25.73;5.70;;;5.60;99.90;;;;;;5072720;28;20203;-62
2022/01/30 03:22:13;;;;;;;27.93;4.93;;;5.60;99.90;;;;;;5068889;28;20237;-63
2022/01/30 03:24:41;;;;;;;28.73;5.97;;;5.70;99.90;;;;;;5069101;28;20243;-62
2022/01/30 03:27:30;;;;;;;27.43;5.27;;;5.70;99.90;;;;;;5054061;28;20233;-62
2022/01/30 03:30:05;;;;;;;21.37;5.27;;;5.70;99.90;;;;;;5052073;28;20519;-63
2022/01/30 03:32:53;;;;;;;30.53;5.40;;;5.70;99.90;;;;;;5069625;28;20473;-62
2022/01/30 03:35:22;;;;;;;35.37;7.13;;;5.70;99.90;;;;;;5070771;28;20473;-62
2022/01/30 03:37:50;;;;;;;28.00;4.63;;;5.70;99.90;;;;;;5070463;28;20241;-63
2022/01/30 03:40:18;;;;;;;20.87;4.83;;;5.70;99.90;;;;;;5068322;28;20473;-62
2022/01/30 03:42:48;;;;;;;18.93;3.80;;;5.60;99.90;;;;;;5068531;28;20468;-62
2022/01/30 03:45:17;;;;;;;19.30;3.83;;;5.60;99.90;;;;;;5060779;28;20552;-62
2022/01/30 03:47:45;;;;;;;17.43;3.13;;;5.50;99.90;;;;;;5068649;28;21046;-62
2022/01/30 03:50:19;;;;;;;13.10;3.20;;;5.40;99.90;;;;;;5069108;28;20720;-63
2022/01/30 03:52:48;;;;;;;16.57;3.20;;;5.40;99.90;;;;;;5068908;28;20469;-63
2022/01/30 03:55:17;;;;;;;20.97;3.57;;;5.30;99.90;;;;;;5068999;28;20484;-62
2022/01/30 03:57:45;;;;;;;17.43;3.40;;;5.20;99.90;;;;;;5068612;28;20238;-62
2022/01/30 04:00:16;;;;;;;19.47;4.37;;;5.20;99.90;;;;;;5069046;28;20550;-63
2022/01/30 04:02:47;;;;;;;19.43;3.73;;;5.20;99.90;;;;;;5070104;28;20473;-62
2022/01/30 04:05:16;;;;;;;18.67;3.00;;;5.20;99.90;;;;;;5069364;28;20469;-62
2022/01/30 04:07:46;;;;;;;24.03;4.80;;;5.20;99.90;;;;;;5068473;28;20859;-63
2022/01/30 04:10:37;;;;;;;24.07;5.40;;;5.20;99.90;;;;;;5068549;28;20473;-63
2022/01/30 04:13:24;;;;;;;26.63;5.53;;;5.20;99.90;;;;;;5068065;28;20717;-62
2022/01/30 04:16:17;;;;;;;24.13;4.77;;;5.20;99.90;;;;;;5065499;28;20269;-62
2022/01/30 04:19:07;;;;;;;23.50;4.97;;;5.20;99.90;;;;;;5065803;28;20232;-62
2022/01/30 04:21:55;;;;;;;24.87;4.53;;;5.20;99.90;;;;;;5064784;28;20486;-63
2022/01/30 04:24:46;;;;;;;26.70;5.03;;;5.20;99.90;;;;;;5068948;28;21044;-62
2022/01/30 04:27:50;;;;;;;22.97;4.83;;;5.20;99.90;;;;;;5046719;28;20326;-62
2022/01/30 04:30:35;;;;;;;11.73;3.37;;;5.30;99.90;;;;;;5074388;28;20965;-62
2022/01/30 04:33:12;;;;;;;23.57;4.37;;;5.40;99.90;;;;;;5069847;28;20621;-62
2022/01/30 04:36:04;;;;;;;19.13;4.13;;;5.40;99.90;;;;;;5068762;28;20235;-63
2022/01/30 04:38:56;;;;;;;15.57;3.83;;;5.40;99.90;;;;;;5068066;28;20472;-62
2022/01/30 04:42:06;;;;;;;16.57;3.90;;;5.50;99.90;;;;;;5068486;28;20729;-62
2022/01/30 04:54:52;;;;;;;15.10;3.07;;;5.70;99.90;;;;;;5052819;28;20987;-62
2022/01/30 04:57:37;;;;;;;29.63;5.97;;;5.70;99.90;;;;;;5071863;28;20261;-62
2022/01/30 05:00:49;;;;;;;25.70;5.07;;;5.70;99.90;;;;;;5072867;28;20485;-62
2022/01/30 05:06:52;;;;;;;27.30;4.80;;;5.70;99.90;;;;;;5071410;28;20672;-63
2022/01/30 05:09:39;;;;;;;25.00;4.27;;;5.60;99.90;;;;;;5072849;28;20847;-62
2022/01/30 05:12:25;;;;;;;33.37;5.53;;;5.70;99.90;;;;;;5071195;28;20470;-62
2022/01/30 05:15:04;;;;;;;23.13;4.87;;;5.60;99.90;;;;;;5072002;28;20238;-62
2022/01/30 05:18:00;;;;;;;27.17;4.87;;;5.60;99.90;;;;;;5064340;28;20945;-62
2022/01/30 05:20:53;;;;;;;27.57;6.00;;;5.60;99.90;;;;;;5071632;28;20391;-62
2022/01/30 05:23:30;;;;;;;19.33;3.93;;;5.70;99.90;;;;;;5071159;28;20469;-62
2022/01/30 05:26:13;;;;;;;31.30;5.00;;;5.70;99.90;;;;;;5071058;28;20245;-63
2022/01/30 05:28:54;;;;;;;26.43;4.53;;;5.70;99.90;;;;;;5071584;28;20234;-62
2022/01/30 05:31:49;;;;;;;24.20;4.70;;;5.70;99.90;;;;;;5071188;28;20985;-62
2022/01/30 05:34:40;;;;;;;27.20;5.43;;;5.70;99.90;;;;;;5069121;28;20547;-63
2022/01/30 05:37:21;;;;;;;29.30;5.73;;;5.70;99.90;;;;;;5065695;28;20553;-62
2022/01/30 05:40:10;;;;;;;31.63;5.60;;;5.80;99.90;;;;;;5072779;28;20605;-63
2022/01/30 05:42:51;;;;;;;31.43;4.73;;;5.80;99.90;;;;;;5072709;28;20995;-62
2022/01/30 05:45:42;;;;;;;24.67;4.63;;;5.70;99.90;;;;;;5070754;28;20242;-62
2022/01/30 05:48:30;;;;;;;24.50;4.40;;;5.70;99.90;;;;;;5071189;28;20658;-62
2022/01/30 05:51:13;;;;;;;28.20;4.90;;;5.70;99.90;;;;;;5070944;28;20234;-62
2022/01/30 05:53:51;;;;;;;33.80;6.10;;;5.70;99.90;;;;;;5070859;28;20235;-62
2022/01/30 05:56:24;;;;;;;25.97;4.57;;;5.70;99.90;;;;;;5071037;28;20243;-62
2022/01/30 05:58:53;;;;;;;29.10;5.33;;;5.60;99.90;;;;;;5070907;28;20249;-62
2022/01/30 06:01:30;;;;;;;23.57;5.63;;;5.70;99.90;;;;;;5071602;28;20492;-62
2022/01/30 06:04:11;;;;;;;26.73;5.50;;;5.70;99.90;;;;;;5058588;28;20965;-62
2022/01/30 06:06:47;;;;;;;29.23;5.07;;;5.80;99.90;;;;;;5060785;28;20233;-61
2022/01/30 06:09:19;;;;;;;28.43;5.30;;;5.80;99.90;;;;;;5071898;28;20497;-63
2022/01/30 06:11:53;;;;;;;29.13;5.67;;;5.80;99.90;;;;;;5070625;28;20538;-62
2022/01/30 06:14:24;;;;;;;30.20;6.47;;;5.90;99.90;;;;;;5070858;28;20900;-62
2022/01/30 06:17:06;;;;;;;29.17;6.37;;;5.90;99.90;;;;;;5070742;28;20230;-62
2022/01/30 06:19:58;;;;;;;37.23;6.77;;;5.90;99.90;;;;;;5072085;28;20238;-62
2022/01/30 06:22:45;;;;;;;34.40;6.10;;;5.90;99.90;;;;;;5071345;28;20349;-62
2022/01/30 06:25:32;;;;;;;34.97;6.00;;;6.00;99.90;;;;;;5071600;28;20484;-62
2022/01/30 06:28:20;;;;;;;27.67;6.77;;;6.00;99.90;;;;;;5065748;28;20234;-62
2022/01/30 06:31:08;;;;;;;30.97;5.83;;;6.00;99.90;;;;;;5064007;28;20321;-63
2022/01/30 06:33:42;;;;;;;33.87;7.03;;;6.00;99.90;;;;;;5068979;28;20726;-63
2022/01/30 06:36:29;;;;;;;29.10;5.87;;;6.00;99.90;;;;;;5071639;28;20256;-62
2022/01/30 06:39:18;;;;;;;28.57;6.07;;;6.00;99.90;;;;;;5070085;28;20706;-62
2022/01/30 06:41:59;;;;;;;27.37;5.23;;;5.90;99.90;;;;;;5069947;28;20461;-62
2022/01/30 06:44:48;;;;;;;36.43;7.00;;;5.80;99.90;;;;;;5071267;28;20252;-62
2022/01/30 06:47:41;;;;;;;28.63;5.40;;;5.80;99.90;;;;;;5070986;28;20479;-62
2022/01/30 06:50:27;;;;;;;33.40;5.53;;;5.70;99.90;;;;;;5071114;28;20472;-62
2022/01/30 06:53:23;;;;;;;35.00;7.13;;;5.80;99.90;;;;;;5070948;28;20489;-62
2022/01/30 06:56:09;;;;;;;35.50;6.60;;;5.80;99.90;;;;;;5071041;28;20244;-62
2022/01/30 06:58:56;;;;;;;33.50;6.93;;;5.80;99.90;;;;;;5070948;28;20250;-63
2022/01/30 07:01:48;;;;;;;31.27;5.63;;;5.80;99.90;;;;;;5068460;28;20507;-62
2022/01/30 07:04:40;;;;;;;31.37;5.73;;;5.80;99.90;;;;;;5070111;28;20595;-62
2022/01/30 07:07:27;;;;;;;35.20;6.17;;;5.90;99.90;;;;;;5068813;28;20321;-63
2022/01/30 07:09:55;;;;;;;34.70;5.67;;;5.90;99.90;;;;;;5070552;28;20246;-62
2022/01/30 07:12:23;;;;;;;27.77;5.83;;;5.90;99.90;;;;;;5070516;28;20234;-62
2022/01/30 07:14:51;;;;;;;40.30;7.03;;;5.90;99.90;;;;;;5070842;28;20505;-62
2022/01/30 07:17:21;;;;;;;25.40;5.00;;;5.90;99.90;;;;;;5070807;28;20469;-62
2022/01/30 07:19:50;;;;;;;23.23;5.47;;;5.90;99.90;;;;;;5070892;28;20261;-62
2022/01/30 07:22:18;;;;;;;29.43;4.93;;;5.90;99.90;;;;;;5070690;28;20245;-62
2022/01/30 07:24:46;;;;;;;27.30;5.63;;;5.90;99.90;;;;;;5070007;28;20242;-62
2022/01/30 07:27:14;;;;;;;23.27;5.37;;;5.90;99.90;;;;;;5070618;28;20226;-62
2022/01/30 07:29:42;;;;;;;28.20;4.60;;;5.90;99.90;;;;;;5070146;28;20767;-62
2022/01/30 07:32:11;;;;;;;24.33;3.73;;;5.90;99.90;;;;;;5070051;28;20476;-63
2022/01/30 07:34:41;;;;;;;23.30;4.80;;;5.90;99.90;;;;;;5070788;28;20261;-62
2022/01/30 07:37:10;;;;;;;32.37;5.10;;;5.90;99.90;;;;;;5070563;28;20235;-62
2022/01/30 07:39:38;;;;;;;22.83;3.90;;;5.90;99.90;;;;;;5070031;28;20227;-62
2022/01/30 07:42:07;;;;;;;23.33;5.10;;;5.90;99.90;;;;;;5067754;28;21032;-62
2022/01/30 07:44:36;;;;;;;25.17;5.33;;;6.00;99.90;;;;;;5068658;28;20293;-62
2022/01/30 07:47:04;;;;;;;27.70;5.30;;;5.90;99.90;;;;;;5070471;28;20233;-62
2022/01/30 07:49:33;;;;;;;26.37;4.97;;;5.90;99.90;;;;;;5070561;28;20507;-62
2022/01/30 07:52:02;;;;;;;33.73;5.60;;;5.90;99.90;;;;;;5070657;28;20223;-62
2022/01/30 07:54:32;;;;;;;20.10;4.87;;;5.80;99.90;;;;;;5069205;28;20553;-62
2022/01/30 07:57:00;;;;;;;21.37;4.43;;;5.80;99.90;;;;;;5069751;28;20262;-62
2022/01/30 07:59:28;;;;;;;28.57;4.47;;;5.80;99.90;;;;;;5067203;28;20484;-63
2022/01/30 08:01:56;;;;;;;25.43;4.73;;;5.80;99.90;;;;;;5066943;28;20476;-63
2022/01/30 08:04:28;;;;;;;17.00;3.40;;;5.90;99.90;;;;;;5069726;28;20481;-62
2022/01/30 08:06:56;;;;;;;23.87;4.33;;;5.90;99.90;;;;;;5069235;28;21052;-62
2022/01/30 08:09:28;;;;;;;27.73;5.30;;;5.80;99.90;;;;;;5069652;28;20249;-62
2022/01/30 08:11:56;;;;;;;30.30;5.53;;;5.80;99.90;;;;;;5067357;28;21053;-62
2022/01/30 08:14:25;;;;;;;25.63;5.00;;;5.80;99.90;;;;;;5069410;28;20238;-62
2022/01/30 08:16:53;;;;;;;29.17;5.30;;;5.90;99.90;;;;;;5069661;28;20553;-62
2022/01/30 08:19:23;;;;;;;29.93;5.53;;;5.90;99.90;;;;;;5069238;28;20239;-62
2022/01/30 08:21:56;;;;;;;32.03;5.87;;;6.00;99.90;;;;;;5069358;28;20989;-62
2022/01/30 08:24:24;;;;;;;20.10;5.10;;;6.00;99.90;;;;;;5069396;28;20560;-62
2022/01/30 08:26:54;;;;;;;37.73;4.97;;;6.00;99.90;;;;;;5072027;28;20544;-62
2022/01/30 08:29:22;;;;;;;34.97;5.20;;;6.00;99.90;;;;;;5073320;28;20227;-62
2022/01/30 08:31:50;;;;;;;34.70;6.73;;;6.00;99.90;;;;;;5073205;28;20465;-62
2022/01/30 08:34:18;;;;;;;29.03;5.53;;;6.10;99.90;;;;;;5073180;28;20233;-63
2022/01/30 08:36:46;;;;;;;32.03;6.00;;;6.10;99.90;;;;;;5072991;28;20329;-63
2022/01/30 08:39:14;;;;;;;34.97;6.40;;;6.10;99.90;;;;;;5073146;28;20729;-63
2022/01/30 08:41:42;;;;;;;27.33;5.23;;;6.00;99.90;;;;;;5070469;28;20242;-62
2022/01/30 08:44:12;;;;;;;34.93;6.00;;;6.10;99.90;;;;;;5071166;28;20636;-63
2022/01/30 08:46:40;;;;;;;23.27;4.73;;;6.10;99.90;;;;;;5060534;28;20255;-62
2022/01/30 08:49:08;;;;;;;29.23;5.20;;;6.10;99.90;;;;;;5064037;28;20258;-62
2022/01/30 08:51:36;;;;;;;26.83;5.43;;;6.10;99.90;;;;;;5065105;28;20580;-63
2022/01/30 08:54:04;;;;;;;22.90;4.43;;;6.10;99.90;;;;;;5070736;28;20660;-62
2022/01/30 08:56:33;;;;;;;32.83;6.10;;;6.10;99.90;;;;;;5067359;28;20323;-62
2022/01/30 08:59:01;;;;;;;30.60;5.50;;;6.20;99.90;;;;;;5068793;28;20230;-62
2022/01/30 09:01:32;;;;;;;28.77;5.77;;;6.20;99.90;;;;;;5071894;28;20310;-62
2022/01/30 09:04:03;;;;;;;32.10;6.33;;;6.20;99.90;;;;;;5072143;28;20235;-63
2022/01/30 09:06:31;;;;;;;30.20;5.27;;;6.20;99.90;;;;;;5072634;28;20780;-62
2022/01/30 09:09:02;;;;;;;29.40;6.23;;;6.20;99.90;;;;;;5073123;28;20239;-63
2022/01/30 09:11:31;;;;;;;27.97;5.63;;;6.20;99.90;;;;;;5073836;28;20288;-62
2022/01/30 09:13:59;;;;;;;24.37;4.90;;;6.20;99.90;;;;;;5072809;28;20230;-62
2022/01/30 09:16:27;;;;;;;22.57;4.67;;;6.30;99.90;;;;;;5072703;28;20468;-62
2022/01/30 09:18:57;;;;;;;29.53;5.60;;;6.30;99.90;;;;;;5072730;28;20226;-62
2022/01/30 09:21:28;;;;;;;20.53;4.60;;;6.30;99.90;;;;;;5072261;28;20245;-62
2022/01/30 09:23:57;;;;;;;19.20;4.10;;;6.30;99.90;;;;;;5072824;28;20263;-62
2022/01/30 09:26:25;;;;;;;25.77;5.03;;;6.40;99.90;;;;;;5072631;28;20238;-60
2022/01/30 09:28:53;;;;;;;25.50;5.10;;;6.40;99.90;;;;;;5072610;28;20560;-60
2022/01/30 09:31:21;;;;;;;33.30;5.47;;;6.40;99.90;;;;;;5072836;28;20246;-60
2022/01/30 09:33:49;;;;;;;31.57;5.43;;;6.40;99.90;;;;;;5072229;28;20587;-60
2022/01/30 09:36:19;;;;;;;23.77;5.90;;;6.40;99.90;;;;;;5072211;28;20235;-60
2022/01/30 09:38:47;;;;;;;27.20;5.63;;;6.40;99.90;;;;;;5071231;28;20722;-60
2022/01/30 09:41:16;;;;;;;22.97;4.83;;;6.40;99.90;;;;;;5072688;28;20230;-60
2022/01/30 09:43:45;;;;;;;28.90;5.93;;;6.50;99.90;;;;;;5072197;28;20273;-59
2022/01/30 09:46:17;;;;;;;31.87;6.60;;;6.50;99.90;;;;;;5071598;28;20243;-60
2022/01/30 09:48:46;;;;;;;26.30;5.60;;;6.50;99.90;;;;;;5072166;28;20706;-60
2022/01/30 09:51:14;;;;;;;29.50;5.03;;;6.40;99.90;;;;;;5072097;28;20261;-60
2022/01/30 09:53:43;;;;;;;32.30;5.77;;;6.40;99.90;;;;;;5071821;28;20313;-60
2022/01/30 09:56:11;;;;;;;27.43;5.57;;;6.50;99.90;;;;;;5072279;28;20317;-59
2022/01/30 09:58:39;;;;;;;27.93;5.30;;;6.60;99.90;;;;;;5072181;28;20505;-62
2022/01/30 10:01:09;;;;;;;34.80;5.43;;;6.60;99.90;;;;;;5071845;28;20246;-62
2022/01/30 10:03:37;;;;;;;30.00;6.20;;;6.60;99.90;;;;;;5072192;28;20286;-62
2022/01/30 10:06:09;;;;;;;30.03;5.63;;;6.70;99.90;;;;;;5072323;28;20245;-62
2022/01/30 10:08:43;;;;;;;19.50;3.43;;;6.70;99.90;;;;;;5070959;28;20231;-63
2022/01/30 10:11:29;;;;;;;34.90;5.80;;;6.60;99.90;;;;;;5072027;28;20318;-62
2022/01/30 10:14:05;;;;;;;24.70;5.00;;;6.60;99.90;;;;;;5071384;28;20325;-62
2022/01/30 10:16:41;;;;;;;22.90;4.73;;;6.60;99.90;;;;;;5071124;28;20491;-62
2022/01/30 10:19:11;;;;;;;32.10;6.17;;;6.60;99.90;;;;;;5070611;28;20497;-62
2022/01/30 10:21:40;;;;;;;33.00;5.43;;;6.60;99.90;;;;;;5057405;28;20231;-62
2022/01/30 10:24:25;;;;;;;27.77;5.87;;;6.60;99.90;;;;;;5071676;28;20288;-62
2022/01/30 10:26:57;;;;;;;31.40;6.30;;;6.60;99.90;;;;;;5070849;28;20227;-62
2022/01/30 10:29:27;;;;;;;30.33;6.17;;;6.60;99.90;;;;;;5069032;28;20337;-62
2022/01/30 10:32:04;;;;;;;40.37;6.90;;;6.60;99.90;;;;;;5071445;28;20559;-63
2022/01/30 10:34:33;;;;;;;30.80;6.30;;;6.70;99.90;;;;;;5065138;28;20238;-63
2022/01/30 10:37:19;;;;;;;25.57;5.13;;;6.70;99.90;;;;;;5071273;28;20235;-62
2022/01/30 10:40:12;;;;;;;29.07;6.10;;;6.70;99.90;;;;;;5069978;28;20276;-62
2022/01/30 10:42:44;;;;;;;27.93;5.70;;;6.80;99.90;;;;;;5046105;28;20330;-62
2022/01/30 10:45:14;;;;;;;29.07;5.60;;;6.80;99.90;;;;;;5052690;28;20286;-62
2022/01/30 10:47:44;;;;;;;32.23;6.10;;;6.80;99.90;;;;;;5054274;28;20289;-62
2022/01/30 10:50:15;;;;;;;29.73;6.03;;;6.80;99.90;;;;;;5052665;28;21160;-62
2022/01/30 10:52:55;;;;;;;25.77;5.40;;;6.80;99.90;;;;;;5052564;28;20318;-62
2022/01/30 10:55:38;;;;;;;31.30;5.60;;;6.80;99.90;;;;;;5056890;28;20572;-62
2022/01/30 10:58:12;;;;;;;29.50;5.90;;;6.80;99.90;;;;;;5056275;28;20318;-62
2022/01/30 11:00:43;;;;;;;27.23;5.37;;;6.70;99.90;;;;;;5064621;28;20328;-62
2022/01/30 11:03:34;;;;;;;31.87;5.50;;;6.90;99.90;;;;;;5065624;28;20659;-62
2022/01/30 11:06:03;;;;;;;24.47;5.47;;;6.90;99.90;;;;;;5066399;28;20266;-62
2022/01/30 11:08:33;;;;;;;23.03;4.93;;;6.90;99.90;;;;;;5066201;28;20331;-63
2022/01/30 11:11:04;;;;;;;29.00;6.80;;;6.90;99.90;;;;;;5064744;28;20262;-62
2022/01/30 11:13:47;;;;;;;26.70;5.97;;;6.90;99.90;;;;;;5066039;28;20238;-62
2022/01/30 11:19:02;;;;;;;22.97;4.70;;;7.10;99.90;;;;;;5066654;28;20719;-61
2022/01/30 11:21:31;;;;;;;19.57;5.27;;;7.00;99.90;;;;;;5064424;28;20258;-62
2022/01/30 11:23:59;;;;;;;33.17;6.03;;;6.90;99.90;;;;;;5064118;28;20330;-62
2022/01/30 11:26:29;;;;;;;25.50;4.87;;;6.90;99.90;;;;;;5064835;28;20420;-62
2022/01/30 11:28:59;;;;;;;28.73;5.50;;;7.00;99.90;;;;;;5066316;28;20923;-62
2022/01/30 11:31:27;;;;;;;28.57;5.43;;;7.00;99.90;;;;;;5064306;28;20239;-61
2022/01/30 11:33:59;;;;;;;22.63;5.00;;;7.10;99.90;;;;;;5066135;28;20269;-62
2022/01/30 11:36:28;;;;;;;32.37;4.93;;;7.10;99.90;;;;;;5065684;28;20321;-62
2022/01/30 11:38:57;;;;;;;21.80;4.43;;;7.00;99.90;;;;;;5065839;28;20794;-62
2022/01/30 11:41:25;;;;;;;19.10;4.40;;;6.90;99.90;;;;;;5064002;28;20273;-62
2022/01/30 11:44:29;;;;;;;24.77;4.60;;;6.80;99.90;;;;;;5063416;28;20292;-62
2022/01/30 11:47:19;;;;;;;27.07;4.70;;;6.70;99.90;;;;;;5065122;28;20651;-62
2022/01/30 11:49:55;;;;;;;24.70;5.03;;;6.70;99.90;;;;;;5065269;28;20241;-62
2022/01/30 11:53:01;;;;;;;20.03;3.97;;;6.80;99.90;;;;;;5064115;28;20433;-61
2022/01/30 11:56:02;;;;;;;26.43;4.80;;;6.80;99.90;;;;;;5064996;28;20263;-62
2022/01/30 11:58:58;;;;;;;22.23;4.77;;;6.70;99.90;;;;;;5064758;28;20665;-62
2022/01/30 12:01:37;;;;;;;20.90;4.17;;;6.70;99.90;;;;;;5066351;28;20333;-61
2022/01/30 12:04:14;;;;;;;23.93;5.07;;;6.70;99.90;;;;;;5069975;28;20626;-62
2022/01/30 12:06:44;;;;;;;26.17;5.23;;;6.70;99.90;;;;;;5073404;28;20288;-62
2022/01/30 12:09:30;;;;;;;33.90;5.70;;;6.80;99.90;;;;;;5071975;28;20238;-62
2022/01/30 12:12:16;;;;;;;25.27;5.33;;;6.80;99.90;;;;;;5073207;28;20632;-64
2022/01/30 12:14:49;;;;;;;25.03;4.97;;;6.90;99.90;;;;;;5073836;28;20239;-64
2022/01/30 12:17:51;;;;;;;23.10;4.50;;;6.90;99.90;;;;;;5073677;28;20270;-64
2022/01/30 12:20:20;;;;;;;26.70;4.80;;;6.80;99.90;;;;;;5074380;28;20321;-64
2022/01/30 12:22:48;;;;;;;24.57;5.10;;;6.90;99.90;;;;;;5073814;28;20277;-64
2022/01/30 12:25:39;;;;;;;17.83;3.67;;;6.90;99.90;;;;;;5072999;28;20572;-64
2022/01/30 12:28:12;;;;;;;25.67;5.17;;;6.80;99.90;;;;;;5066297;28;20238;-64
2022/01/30 12:30:49;;;;;;;25.47;5.27;;;6.80;99.90;;;;;;5071363;28;20296;-61
2022/01/30 12:33:42;;;;;;;20.47;4.77;;;6.70;99.90;;;;;;5073580;28;20269;-61
2022/01/30 12:36:21;;;;;;;21.43;4.50;;;6.70;99.90;;;;;;5073532;28;20266;-61
2022/01/30 12:39:06;;;;;;;24.13;4.53;;;6.70;99.90;;;;;;5073274;28;20684;-61
2022/01/30 12:41:36;;;;;;;26.17;4.63;;;6.70;99.90;;;;;;5073151;28;20266;-61
2022/01/30 12:44:06;;;;;;;23.77;5.13;;;6.70;99.90;;;;;;5061838;28;20734;-61
2022/01/30 12:46:45;;;;;;;23.40;5.00;;;6.70;99.90;;;;;;5066159;28;20242;-61
2022/01/30 12:49:17;;;;;;;24.77;5.20;;;6.70;99.90;;;;;;5064559;28;20256;-60
2022/01/30 12:51:49;;;;;;;21.80;4.57;;;6.70;99.90;;;;;;5066048;28;20238;-62
2022/01/30 12:54:19;;;;;;;27.13;4.27;;;6.70;99.90;;;;;;5065982;28;20580;-61
2022/01/30 12:56:48;;;;;;;25.07;4.13;;;6.80;99.90;;;;;;5066328;28;20715;-61
2022/01/30 12:59:17;;;;;;;25.10;5.10;;;6.70;99.90;;;;;;5066036;28;20792;-61
2022/01/30 13:01:47;;;;;;;25.93;5.23;;;6.70;99.90;;;;;;5066380;28;20259;-61
2022/01/30 13:04:18;;;;;;;27.27;4.47;;;6.70;99.90;;;;;;5065788;28;20243;-61
2022/01/30 13:06:49;;;;;;;19.57;5.47;;;6.60;99.90;;;;;;5066168;28;20239;-60
2022/01/30 13:09:22;;;;;;;25.30;5.30;;;6.60;99.90;;;;;;5065150;28;20242;-62
2022/01/30 13:11:50;;;;;;;19.53;5.00;;;6.60;99.90;;;;;;5066088;28;20243;-61
2022/01/30 13:14:19;;;;;;;17.83;3.70;;;6.60;99.90;;;;;;5066023;28;20660;-62
2022/01/30 13:16:49;;;;;;;21.97;4.13;;;6.60;99.90;;;;;;5065856;28;20239;-61
2022/01/30 13:19:31;;;;;;;20.00;4.63;;;6.60;99.90;;;;;;5063625;28;20238;-61
2022/01/30 13:22:01;;;;;;;26.37;5.23;;;6.60;99.90;;;;;;5065988;28;20326;-62
2022/01/30 13:24:29;;;;;;;26.27;4.77;;;6.60;99.90;;;;;;5066171;28;20235;-61
2022/01/30 13:27:01;;;;;;;21.73;3.90;;;6.50;99.90;;;;;;5067784;28;20250;-61
2022/01/30 13:29:31;;;;;;;23.50;4.00;;;6.50;99.90;;;;;;5066903;28;20286;-61
2022/01/30 13:31:59;;;;;;;28.90;5.23;;;6.50;99.90;;;;;;5068481;28;20243;-61
2022/01/30 13:34:31;;;;;;;26.67;4.73;;;6.50;99.90;;;;;;5067799;28;20320;-60
2022/01/30 13:37:01;;;;;;;25.07;4.00;;;6.50;99.90;;;;;;5067863;28;20378;-61
2022/01/30 13:39:37;;;;;;;25.60;3.97;;;6.60;99.90;;;;;;5066687;28;20653;-61
2022/01/30 13:48:15;;;;;;;28.33;4.77;;;6.50;99.90;;;;;;5066479;28;20723;-61
2022/01/30 13:50:46;;;;;;;16.77;3.50;;;6.50;99.90;;;;;;5066967;28;20813;-61
2022/01/30 13:53:24;;;;;;;19.10;4.47;;;6.50;99.90;;;;;;5067603;28;20239;-61
2022/01/30 13:55:57;;;;;;;29.90;5.40;;;6.50;99.90;;;;;;5067749;28;20318;-62
2022/01/30 13:58:30;;;;;;;26.30;4.90;;;6.40;99.90;;;;;;5065988;28;20239;-61
2022/01/30 14:00:58;;;;;;;24.33;4.93;;;6.40;99.90;;;;;;5067516;28;20310;-62
2022/01/30 14:03:28;;;;;;;27.27;4.70;;;6.40;99.90;;;;;;5066829;28;20246;-61
2022/01/30 14:05:58;;;;;;;22.63;4.30;;;6.40;99.90;;;;;;5067263;28;20705;-62